• Join FlightAware (Why Join?)
  • Login
  • US Flag 
11:32AM EDT


 

Airport Tracker/Info


-or-


 

Live Flight TrackerFlight Track Log ✈ AWE647 ✈ 13-Apr-2013 ✈ KPHX - KONT

Flight Track Log - Related Links

Times and Time Zones

All times are in EDT time to prevent confusion due to time zone crossing. See the AWE647 flight status page for this flight to view local times or setup timezone preferences in your user account.

Time Position Orientation Groundspeed Altitude Reporting Facility
EDT Latitude Longitude Course Direction KTS MPH feet Rate Location/Type
01:26PM 33.4333 -112.0000 273° West 171 197 1,800  Level Phoenix TRACON
01:26PM 33.4322 -111.9719 93° East 156 180 2,600 1,920 Climbing Albuquerque Center
01:27PM 33.4356 -111.9014 87° East 209 241 4,800 2,460 Climbing Albuquerque Center
01:28PM 33.4333 -112.3157 270° West  Level FlightAware Approximate
01:28PM 33.4058 -111.8439 122° Southeast 243 280 7,700  Level Albuquerque Center
01:29PM 33.4349 -112.4209 273° West  Level FlightAware Approximate
01:29PM 33.3458 -111.8783 206° Southwest 242 278 10,900  Level Albuquerque Center
01:30PM 33.4392 -112.5260 273° West  Level FlightAware Approximate
01:30PM 33.2814 -111.9278 213° Southwest 276 318 13,500  Level Albuquerque Center
01:31PM 33.4434 -112.6311 273° West  Level FlightAware Approximate
01:31PM 33.2883 -112.0289 275° West 313 360 15,200  Level Albuquerque Center
01:32PM 33.3125 -112.1439 284° West 352 405 17,800 2,700 Climbing Albuquerque Center
01:33PM 33.3425 -112.2861 284° West 367 422 20,800 2,460 Climbing Albuquerque Center
01:34PM 33.3678 -112.4081 284° West 375 432 23,000 1,980 Climbing Albuquerque Center
01:35PM 33.3936 -112.5325 284° West 382 440 25,000 1,680 Climbing Albuquerque Center
01:36PM 33.4197 -112.6578 284° West 391 450 26,500 1,440 Climbing Albuquerque Center
01:37PM 33.4467 -112.7892 284° West 402 463 28,000 1,620 Climbing Albuquerque Center
01:38PM 33.4792 -112.9519 284° West 415 478 29,900 900 Climbing Albuquerque Center
01:39PM 33.5044 -113.0886 283° West 420 483 29,900  Level Albuquerque Center
01:40PM 33.5325 -113.2308 283° West 434 499 30,000  Climbing Albuquerque Center
01:42PM 33.5589 -113.3744 282° West 442 509 30,000  Level Albuquerque Center
01:43PM 33.5858 -113.5164 283° West 440 506 30,000 780 Level Albuquerque Center
01:44PM 33.6147 -113.6667 283° West 441 507 31,700 960 Climbing Albuquerque Center
01:45PM 33.6397 -113.8064 282° West 434 499 32,000 120 Climbing Albuquerque Center
01:46PM 33.6658 -113.9469 283° West 431 496 32,000  Level Albuquerque Center
01:47PM 33.6964 -114.1178 282° West 435 501 32,000  Level Albuquerque Center
01:48PM 33.7208 -114.2494 283° West 435 501 32,000 -60 Level Albuquerque Center
01:49PM 33.7456 -114.3919 282° West 436 502 31,900 -60 Descending Albuquerque Center
01:50PM 33.7753 -114.5564 282° West 425 489 31,900  Level Albuquerque Center
01:51PM 33.7822 -114.6839 274° West 426 490 32,000  Climbing Los Angeles Center
01:52PM 33.7911 -114.8239 274° West 423 487 32,000  Level Los Angeles Center
01:53PM 33.7989 -114.9650 274° West 424 488 32,000 -60 Level Los Angeles Center
01:54PM 33.8075 -115.1053 274° West 423 487 31,900  Descending Los Angeles Center
01:55PM 33.8161 -115.2764 274° West 428 493 32,000 -360 Climbing Los Angeles Center
01:56PM 33.8233 -115.4183 274° West 427 491 31,200 -780 Descending Los Angeles Center
01:57PM 33.8292 -115.5278 274° West 421 484 30,400 -1,020 Descending Los Angeles Center
01:58PM 33.8361 -115.6903 273° West 409 471 29,200 -1,020 Descending Los Angeles Center
01:59PM 33.8433 -115.8250 274° West 407 468 28,300 -1,020 Descending Los Angeles Center
02:00PM 33.8506 -115.9861 273° West 405 466 27,100 -1,080 Descending Los Angeles Center
02:01PM 33.8564 -116.1167 273° West 397 457 26,100 -1,440 Descending Los Angeles Center
02:02PM 33.8622 -116.2444 273° West 389 448 24,200 -1,920 Descending Los Angeles Center
02:03PM 33.8675 -116.3697 273° West 378 435 22,200 -2,220 Descending Los Angeles Center
02:04PM 33.8736 -116.4917 273° West 370 426 19,700 -2,700 Descending Los Angeles Center
02:05PM 33.8800 -116.6419 273° West 375 432 16,700 -2,640 Descending Los Angeles Center
02:06PM 33.8861 -116.7625 274° West 365 420 14,300 -1,920 Descending Los Angeles Center
02:07PM 33.9000 -116.8833 278° West 311 358 12,800 -1,920 Descending Southern California TRACON
02:09PM 33.9333 -117.0667 282° West 277 319 8,500 -2,100 Descending Southern California TRACON
02:10PM 33.9667 -117.1500 296° West 269 310 6,700 -1,260 Descending Southern California TRACON
02:11PM 34.0000 -117.2167 301° West 244 281 6,000 -840 Descending Southern California TRACON
02:12PM 34.0333 -117.2833 301° West 216 249 5,000 -900 Descending Southern California TRACON
02:13PM 34.0500 -117.3500 287° West 220 253 4,300 -780 Descending Southern California TRACON